KMLU

Monroe Regional Airport

Monroe, Louisiana, USA
METAR KMLU 181453Z 00000KT 10SM CLR M06/M08 A3063 RMK AO2 SLP373 I3000 T10561078 53007
Observed Flight Rules
Jan-18 @ 14:53 UTC (40 minutes ago) Visual Flight Rules
Wind Visibility Clouds
Calm 10 miles
  • Clear skies
Temperatures Readings
Current -6°C / 21°F
Dewpoint -8°C / 18°F
Humidity 86%
Altimeter 30.63" Hg
Pressure 1037.3 hPa
Elevation 29
METAR KMLU 181453Z 00000KT 10SM CLR M06/M08 A3063 RMK AO2 SLP373 I3000 T10561078 53007
Observed Flight Rules
Jan-18 @ 14:53 UTC
(40 minutes ago)
VFR
Wind Visibility
Calm 10 miles
Clouds
  • Clear skies
Temperature Dewpoint
-6°C / 21°F -8°C / 18°F
Humidity Altimeter Pressure
86% 30.63" Hg 1037.3 hPa